Portada
METAR-TAF:

METAR-TAF

Aeropuertos :

Chlef, Argelia

latitud: 36-13N, longitud: 001-20E, altitud: 143 m

Observación

El informe se hizo hace 1 hora y 15 minutos, a las 07:00 UTC
Viento 6 kt del noreste
Temperatura 7°C
Humedad 57%
Presión 1021 hPa
Visibilidad 10 km o más
sin nubes por debajo de 1500 m y sin presencia de cumulonimbus.

METAR: DAOI 180700Z 04006KT CAVOK 07/M01 Q1021

Hora: 09:15 (08:15 UTC)

Pronóstico

El informe se hizo hace 3 horas y 15 minutos, a las 05:00 UTC
Pronóstico válido del 18 a las 06 UTC al 19 a las 06 UTC
Viento 10 kt del este-noreste
Visibilidad 10 km o más
sin nubes por debajo de 1500 m y sin presencia de cumulonimbus.
Evolucionando progresivamente
del 18 a las 10 UTC al 18 a las 12 UTC
Viento 10 kt del noroeste

TAF: DAOI 180500Z 1806/1906 06010KT CAVOK BECMG 1810/1812 32010KT

Observaciones y pronósticos meteorológicos de más de 4000 aeropuertos (mensajes METAR y TAF).

Los puntos amarillos y rojos representan las estaciones disponibles.

Ponga el ratón en el punto deseado para ver el nombre de la estación.

Haga clic para ver las observaciones y los pronósticos meteorológicos.

Para cambiar el mapa : haga clic en los botones verdes con una cruz de color negro para hacer un zoom, en el botón verde con un guión para alejar o en las flechas verdes para mapas adyacentes.


METAR-TAF: